createdAt,value
2017-11-07T00:03:54.885Z,0.00
2017-11-07T00:04:54.798Z,0.00
2017-11-07T00:06:47.563Z,0.00
2017-11-07T00:07:47.475Z,0.00
2017-11-07T00:09:40.234Z,0.00
2017-11-07T00:10:40.150Z,0.00
2017-11-07T00:12:31.904Z,0.00
2017-11-07T00:13:31.848Z,0.00
2017-11-07T00:15:23.598Z,0.00
2017-11-07T00:16:23.525Z,0.00
2017-11-07T00:18:15.284Z,0.00
2017-11-07T00:19:15.205Z,0.00
2017-11-07T00:21:06.965Z,0.00
2017-11-07T00:22:06.909Z,0.00
2017-11-07T00:23:58.672Z,0.00
2017-11-07T00:24:58.580Z,0.00
2017-11-07T00:26:50.348Z,0.00
2017-11-07T00:27:50.292Z,0.00
2017-11-07T00:29:42.034Z,0.00
2017-11-07T00:30:41.968Z,0.00
2017-11-07T00:32:33.708Z,0.00
2017-11-07T00:33:33.642Z,0.00
2017-11-07T00:35:25.400Z,0.00
2017-11-07T00:36:25.323Z,0.00
2017-11-07T00:38:17.080Z,0.00
2017-11-07T00:39:17.003Z,0.00
2017-11-07T00:41:08.762Z,0.00
2017-11-07T00:42:08.685Z,0.00
2017-11-07T00:44:00.466Z,0.00
2017-11-07T00:45:00.367Z,0.00
2017-11-07T00:46:52.149Z,0.00
2017-11-07T00:47:52.068Z,0.00
2017-11-07T00:49:43.830Z,0.00
2017-11-07T00:50:43.764Z,0.00
2017-11-07T00:52:35.500Z,0.00
2017-11-07T00:53:35.444Z,0.00
2017-11-07T00:55:27.214Z,0.00
2017-11-07T00:56:27.129Z,0.00
2017-11-07T00:58:18.881Z,4.00
2017-11-07T00:59:18.811Z,4.00
2017-11-07T01:01:10.587Z,0.00
2017-11-07T01:02:10.503Z,0.00
2017-11-07T01:04:02.263Z,0.00
2017-11-07T01:05:02.186Z,0.00
2017-11-07T01:06:53.951Z,0.00
2017-11-07T01:07:53.884Z,0.00
2017-11-07T01:09:45.621Z,0.00
2017-11-07T01:10:45.561Z,0.00
2017-11-07T01:12:37.306Z,0.00
2017-11-07T01:13:37.239Z,0.00
2017-11-07T01:15:29.037Z,0.00
2017-11-07T01:16:28.920Z,0.00
2017-11-07T01:18:20.673Z,0.00
2017-11-07T01:19:20.601Z,0.00
2017-11-07T01:21:12.399Z,0.00
2017-11-07T01:22:12.294Z,0.00
2017-11-07T01:23:12.224Z,0.00
2017-11-07T01:24:12.165Z,0.00
2017-11-07T01:25:12.108Z,0.00
2017-11-07T01:26:12.045Z,0.00
2017-11-07T01:27:11.990Z,0.00
2017-11-07T01:28:11.934Z,0.00
2017-11-07T01:29:11.858Z,0.00
2017-11-07T01:30:11.796Z,0.00
2017-11-07T01:31:11.727Z,0.00
2017-11-07T01:32:11.665Z,0.00
2017-11-07T01:33:11.607Z,0.00
2017-11-07T01:34:11.548Z,0.00
2017-11-07T01:35:11.484Z,0.00
2017-11-07T01:36:11.433Z,0.00
2017-11-07T01:37:11.378Z,0.00
2017-11-07T01:38:11.296Z,0.00
2017-11-07T01:39:11.233Z,0.00
2017-11-07T01:40:11.172Z,0.00
2017-11-07T01:41:11.105Z,0.00
2017-11-07T01:42:11.047Z,0.00
2017-11-07T01:43:10.987Z,0.00
2017-11-07T01:44:10.930Z,0.00
2017-11-07T01:45:10.875Z,0.00
2017-11-07T01:46:10.798Z,0.00
2017-11-07T01:47:10.734Z,0.00
2017-11-07T01:48:10.675Z,0.00
2017-11-07T01:49:10.606Z,0.00
2017-11-07T01:50:10.547Z,0.00
2017-11-07T01:51:10.486Z,0.00
2017-11-07T01:52:10.429Z,0.00
2017-11-07T01:53:10.375Z,0.00
2017-11-07T01:54:10.318Z,0.00
2017-11-07T01:55:10.234Z,0.00
2017-11-07T01:56:10.178Z,0.00
2017-11-07T01:57:10.106Z,0.00
2017-11-07T01:58:10.046Z,0.00
2017-11-07T01:59:09.986Z,0.00
2017-11-07T02:00:09.928Z,0.00
2017-11-07T02:01:09.870Z,0.00
2017-11-07T02:02:09.817Z,0.00
2017-11-07T02:03:09.739Z,0.00
2017-11-07T02:04:09.673Z,0.00
2017-11-07T02:05:09.607Z,0.00
2017-11-07T02:06:09.551Z,0.00
2017-11-07T02:07:09.485Z,0.00
2017-11-07T02:08:09.424Z,0.00
2017-11-07T02:09:09.368Z,0.00
2017-11-07T02:10:09.316Z,0.00
2017-11-07T02:11:09.242Z,0.00
2017-11-07T02:12:09.176Z,0.00
2017-11-07T02:13:09.111Z,0.00
2017-11-07T02:14:09.045Z,0.00
2017-11-07T02:15:08.985Z,0.00
2017-11-07T02:16:08.925Z,0.00
2017-11-07T02:17:08.866Z,0.00
2017-11-07T02:18:08.795Z,0.00
2017-11-07T02:19:08.755Z,0.00
2017-11-07T02:20:08.681Z,0.00
2017-11-07T02:21:08.614Z,0.00
2017-11-07T02:22:08.544Z,0.00
2017-11-07T02:23:08.484Z,0.00
2017-11-07T02:24:08.430Z,0.00
2017-11-07T02:25:08.365Z,0.00
2017-11-07T02:26:08.308Z,0.00
2017-11-07T02:27:08.253Z,0.00
2017-11-07T02:28:08.175Z,0.00
2017-11-07T02:29:08.113Z,0.00
2017-11-07T02:30:08.045Z,0.00
2017-11-07T02:31:08.008Z,0.00
2017-11-07T02:32:07.924Z,0.00
2017-11-07T02:33:07.863Z,0.00
2017-11-07T02:34:07.805Z,0.00
2017-11-07T02:35:07.752Z,0.00
2017-11-07T02:36:07.675Z,0.00
2017-11-07T02:37:07.612Z,0.00
2017-11-07T02:38:07.550Z,0.00
2017-11-07T02:39:07.482Z,0.00
2017-11-07T02:40:07.424Z,0.00
2017-11-07T02:41:07.361Z,0.00
2017-11-07T02:42:07.304Z,0.00
2017-11-07T02:43:07.253Z,0.00
2017-11-07T02:44:07.195Z,0.00
2017-11-07T02:45:07.113Z,0.00
2017-11-07T02:46:07.053Z,0.00
2017-11-07T02:47:06.981Z,0.00
2017-11-07T02:48:06.925Z,0.00
2017-11-07T02:49:06.862Z,0.00
2017-11-07T02:50:06.803Z,0.00
2017-11-07T02:51:06.740Z,0.00
2017-11-07T02:52:06.692Z,0.00
2017-11-07T02:53:06.614Z,0.00
2017-11-07T02:54:06.550Z,0.00
2017-11-07T02:55:06.499Z,0.00
2017-11-07T02:56:06.445Z,0.00
2017-11-07T02:57:06.361Z,0.00
2017-11-07T02:58:06.304Z,0.00
2017-11-07T02:59:06.243Z,0.00
2017-11-07T03:00:06.193Z,0.00
2017-11-07T03:01:06.113Z,0.00
2017-11-07T03:02:06.051Z,0.00
2017-11-07T03:03:05.991Z,0.00
2017-11-07T03:04:05.924Z,0.00
2017-11-07T03:05:05.860Z,0.00
2017-11-07T03:06:05.800Z,0.00
2017-11-07T03:07:05.742Z,0.00
2017-11-07T03:08:05.688Z,0.00
2017-11-07T03:09:05.631Z,0.00
2017-11-07T03:10:05.558Z,0.00
2017-11-07T03:11:05.489Z,0.00
2017-11-07T03:12:05.418Z,0.00
2017-11-07T03:13:05.360Z,0.00
2017-11-07T03:14:05.298Z,0.00
2017-11-07T03:15:05.241Z,0.00
2017-11-07T03:16:05.187Z,0.00
2017-11-07T03:17:05.129Z,0.00
2017-11-07T03:18:05.049Z,0.00
2017-11-07T03:19:04.983Z,0.00
2017-11-07T03:20:04.916Z,0.00
2017-11-07T03:21:04.858Z,0.00
2017-11-07T03:22:04.798Z,0.00
2017-11-07T03:23:04.738Z,0.00
2017-11-07T03:24:04.681Z,0.00
2017-11-07T03:25:04.626Z,0.00
2017-11-07T03:26:04.547Z,0.00
2017-11-07T03:27:04.483Z,0.00
2017-11-07T03:28:04.416Z,0.00
2017-11-07T03:29:04.364Z,0.00
2017-11-07T03:30:04.300Z,0.00
2017-11-07T03:31:04.235Z,0.00
2017-11-07T03:32:04.177Z,0.00
2017-11-07T03:33:04.123Z,0.00
2017-11-07T03:34:04.044Z,0.00
2017-11-07T03:35:03.982Z,0.00
2017-11-07T03:36:03.912Z,0.00
2017-11-07T03:37:03.850Z,0.00
2017-11-07T03:38:03.794Z,0.00
2017-11-07T03:39:03.729Z,0.00
2017-11-07T03:40:03.678Z,0.00
2017-11-07T03:41:03.629Z,0.00
2017-11-07T03:42:03.541Z,0.00
2017-11-07T03:43:03.477Z,0.00
2017-11-07T03:44:03.412Z,0.00
2017-11-07T03:45:03.351Z,0.00
2017-11-07T03:46:03.289Z,0.00
2017-11-07T03:47:03.229Z,0.00
2017-11-07T03:48:03.173Z,0.00
2017-11-07T03:49:03.118Z,0.00
2017-11-07T03:50:03.038Z,0.00
2017-11-07T03:51:02.976Z,0.00
2017-11-07T03:52:02.905Z,0.00
2017-11-07T03:53:02.846Z,0.00
2017-11-07T03:54:02.845Z,0.00
2017-11-07T03:55:02.726Z,0.00
2017-11-07T03:56:02.671Z,0.00
2017-11-07T03:57:02.616Z,0.00
2017-11-07T03:58:02.534Z,0.00
2017-11-07T03:59:02.475Z,0.00
2017-11-07T04:00:02.405Z,0.00
2017-11-07T04:01:02.343Z,0.00
2017-11-07T04:02:02.282Z,0.00
2017-11-07T04:03:02.223Z,0.00
2017-11-07T04:04:02.167Z,0.00
2017-11-07T04:05:02.094Z,0.00
2017-11-07T04:06:02.030Z,0.00
2017-11-07T04:07:01.968Z,0.00
2017-11-07T04:08:01.900Z,0.00
2017-11-07T04:09:01.841Z,0.00
2017-11-07T04:10:01.780Z,0.00
2017-11-07T04:11:01.721Z,0.00
2017-11-07T04:12:01.663Z,0.00
2017-11-07T04:13:01.586Z,0.00
2017-11-07T04:14:01.527Z,0.00
2017-11-07T04:15:01.455Z,0.00
2017-11-07T04:16:01.394Z,0.00
2017-11-07T04:17:01.336Z,0.00
2017-11-07T04:18:01.275Z,0.00
2017-11-07T04:19:01.217Z,0.00
2017-11-07T04:20:01.162Z,0.00
2017-11-07T04:21:01.085Z,0.00
2017-11-07T04:22:01.022Z,0.00
2017-11-07T04:23:00.975Z,0.00
2017-11-07T04:24:00.890Z,0.00
2017-11-07T04:25:00.841Z,0.00
2017-11-07T04:26:00.770Z,0.00
2017-11-07T04:27:00.715Z,0.00
2017-11-07T04:28:00.660Z,0.00
2017-11-07T04:29:00.582Z,0.00
2017-11-07T04:30:00.516Z,0.00
2017-11-07T04:31:00.459Z,0.00
2017-11-07T04:32:00.388Z,0.00
2017-11-07T04:33:00.328Z,0.00
2017-11-07T04:34:00.267Z,0.00
2017-11-07T04:35:00.212Z,0.00
2017-11-07T04:36:00.157Z,0.00
2017-11-07T04:37:00.083Z,0.00
2017-11-07T04:38:00.010Z,0.00
2017-11-07T04:38:59.942Z,0.00
2017-11-07T04:39:59.883Z,0.00
2017-11-07T04:40:59.820Z,0.00
2017-11-07T04:41:59.765Z,0.00
2017-11-07T04:42:59.710Z,0.00
2017-11-07T04:43:59.631Z,0.00
2017-11-07T04:44:59.568Z,0.00
2017-11-07T04:45:59.498Z,0.00
2017-11-07T04:46:59.436Z,0.00
2017-11-07T04:47:59.383Z,0.00
2017-11-07T04:48:59.317Z,0.00
2017-11-07T04:49:59.260Z,0.00
2017-11-07T04:50:59.214Z,0.00
2017-11-07T04:51:59.123Z,0.00
2017-11-07T04:52:59.062Z,0.00
2017-11-07T04:53:58.991Z,0.00
2017-11-07T04:54:58.932Z,0.00
2017-11-07T04:55:58.873Z,0.00
2017-11-07T04:56:58.814Z,0.00
2017-11-07T04:57:58.759Z,0.00
2017-11-07T04:58:58.676Z,0.00
2017-11-07T04:59:58.625Z,0.00
2017-11-07T05:00:58.558Z,0.00
2017-11-07T05:01:58.491Z,0.00
2017-11-07T05:02:58.427Z,0.00
2017-11-07T05:03:58.367Z,0.00
2017-11-07T05:04:58.310Z,0.00
2017-11-07T05:05:58.256Z,0.00
2017-11-07T05:06:58.182Z,0.00
2017-11-07T05:07:58.108Z,0.00
2017-11-07T05:08:58.047Z,0.00
2017-11-07T05:09:57.987Z,0.00
2017-11-07T05:10:57.920Z,0.00
2017-11-07T05:11:57.863Z,0.00
2017-11-07T05:12:57.808Z,0.00
2017-11-07T05:13:57.734Z,0.00
2017-11-07T05:14:57.665Z,0.00
2017-11-07T05:15:57.599Z,0.00
2017-11-07T05:16:57.538Z,0.00
2017-11-07T05:17:57.481Z,0.00
2017-11-07T05:18:57.411Z,0.00
2017-11-07T05:19:57.362Z,0.00
2017-11-07T05:20:57.284Z,0.00
2017-11-07T05:21:57.222Z,0.00
2017-11-07T05:22:57.151Z,0.00
2017-11-07T05:23:57.093Z,0.00
2017-11-07T05:24:57.028Z,0.00
2017-11-07T05:25:56.968Z,0.00
2017-11-07T05:26:56.912Z,0.00
2017-11-07T05:27:56.857Z,0.00
2017-11-07T05:28:56.778Z,0.00
2017-11-07T05:29:56.727Z,0.00
2017-11-07T05:30:56.647Z,0.00
2017-11-07T05:31:56.582Z,0.00
2017-11-07T05:32:56.521Z,0.00
2017-11-07T05:33:56.464Z,0.00
2017-11-07T05:34:56.409Z,4.00
2017-11-07T05:35:56.331Z,4.00
2017-11-07T05:36:56.266Z,0.00
2017-11-07T05:37:56.195Z,4.00
2017-11-07T05:38:56.136Z,4.00
2017-11-07T05:39:56.074Z,0.00
2017-11-07T05:40:56.016Z,4.00
2017-11-07T05:41:55.961Z,4.00
2017-11-07T05:42:55.882Z,8.00
2017-11-07T05:43:55.823Z,8.00
2017-11-07T05:44:55.749Z,8.00
2017-11-07T05:45:55.688Z,8.00
2017-11-07T05:46:55.632Z,12.00
2017-11-07T05:47:55.569Z,12.00
2017-11-07T05:48:55.513Z,16.00
2017-11-07T05:49:55.435Z,20.00
2017-11-07T05:50:55.373Z,24.00
2017-11-07T05:51:55.303Z,24.00
2017-11-07T05:52:55.242Z,32.00
2017-11-07T05:53:55.182Z,36.00
2017-11-07T05:54:55.123Z,44.00
2017-11-07T05:55:55.066Z,48.00
2017-11-07T05:56:54.990Z,56.00
2017-11-07T05:57:54.927Z,68.00
2017-11-07T05:58:54.862Z,76.00
2017-11-07T05:59:54.798Z,88.00
2017-11-07T06:00:54.738Z,100.00
2017-11-07T06:01:54.671Z,112.00
2017-11-07T06:02:54.617Z,128.00
2017-11-07T06:03:54.562Z,144.00
2017-11-07T06:04:54.484Z,160.00
2017-11-07T06:05:54.415Z,180.00
2017-11-07T06:06:54.370Z,204.00
2017-11-07T06:07:54.286Z,228.00
2017-11-07T06:08:54.227Z,256.00
2017-11-07T06:09:54.156Z,288.00
2017-11-07T06:10:54.126Z,316.00
2017-11-07T06:11:54.032Z,352.00
2017-11-07T06:12:53.963Z,380.00
2017-11-07T06:13:53.915Z,416.00
2017-11-07T06:14:53.837Z,452.00
2017-11-07T06:15:53.777Z,500.00
2017-11-07T06:16:53.733Z,548.00
2017-11-07T06:17:53.667Z,588.00
2017-11-07T06:18:53.583Z,640.00
2017-11-07T06:19:53.519Z,688.00
2017-11-07T06:20:53.463Z,728.00
2017-11-07T06:21:53.398Z,768.00
2017-11-07T06:22:53.331Z,816.00
2017-11-07T06:23:53.275Z,872.00
2017-11-07T06:24:53.193Z,928.00
2017-11-07T06:25:53.134Z,988.00
2017-11-07T06:26:53.080Z,1060.00
2017-11-07T06:27:53.006Z,1116.00
2017-11-07T06:28:52.942Z,1180.00
2017-11-07T06:29:52.880Z,1244.00
2017-11-07T06:30:52.826Z,1308.00
2017-11-07T06:31:52.749Z,1372.00
2017-11-07T06:32:52.686Z,1436.00
2017-11-07T06:33:52.615Z,1500.00
2017-11-07T06:34:52.555Z,1572.00
2017-11-07T06:35:52.493Z,1640.00
2017-11-07T06:36:52.439Z,1704.00
2017-11-07T06:37:52.377Z,1760.00
2017-11-07T06:38:52.300Z,1832.00
2017-11-07T06:39:52.236Z,1896.00
2017-11-07T06:40:52.167Z,1968.00
2017-11-07T06:41:52.104Z,2028.00
2017-11-07T06:42:52.042Z,2092.00
2017-11-07T06:43:51.983Z,2168.00
2017-11-07T06:44:51.915Z,2232.00
2017-11-07T06:45:51.876Z,2316.00
2017-11-07T06:46:51.786Z,2388.00
2017-11-07T06:47:51.715Z,2464.00
2017-11-07T06:48:51.659Z,2548.00
2017-11-07T06:49:51.596Z,2604.00
2017-11-07T06:50:51.535Z,2680.00
2017-11-07T06:51:51.481Z,2740.00
2017-11-07T06:52:51.426Z,2864.00
2017-11-07T06:53:51.338Z,2928.00
2017-11-07T06:54:51.277Z,3060.00
2017-11-07T06:55:51.212Z,3120.00
2017-11-07T06:56:51.148Z,3224.00
2017-11-07T06:57:51.100Z,3264.00
2017-11-07T06:58:51.033Z,3412.00
2017-11-07T06:59:50.952Z,3484.00
2017-11-07T07:00:50.891Z,3548.00
2017-11-07T07:01:50.820Z,3684.00
2017-11-07T07:02:50.770Z,3792.00
2017-11-07T07:03:50.703Z,3908.00
2017-11-07T07:04:50.640Z,4128.00
2017-11-07T07:05:50.585Z,3984.00
2017-11-07T07:06:50.515Z,4128.00
2017-11-07T07:07:50.443Z,4208.00
2017-11-07T07:08:50.400Z,4288.00
2017-11-07T07:09:50.321Z,4544.00
2017-11-07T07:10:50.250Z,4476.00
2017-11-07T07:11:50.192Z,4680.00
2017-11-07T07:12:50.151Z,4684.00
2017-11-07T07:13:50.064Z,4804.00
2017-11-07T07:14:49.998Z,4884.00
2017-11-07T07:15:49.935Z,4792.00
2017-11-07T07:16:49.866Z,4932.00
2017-11-07T07:17:49.807Z,4864.00
2017-11-07T07:18:49.745Z,4868.00
2017-11-07T07:19:49.688Z,4892.00
2017-11-07T07:20:49.634Z,4988.00
2017-11-07T07:21:49.580Z,5188.00
2017-11-07T07:22:49.494Z,5784.00
2017-11-07T07:23:49.421Z,7148.00
2017-11-07T07:24:49.362Z,8320.00
2017-11-07T07:25:49.302Z,8780.00
2017-11-07T07:26:49.244Z,7528.00
2017-11-07T07:27:49.186Z,6608.00
2017-11-07T07:28:49.110Z,6952.00
2017-11-07T07:29:49.047Z,8756.00
2017-11-07T07:30:48.989Z,12212.00
2017-11-07T07:31:48.915Z,15296.00
2017-11-07T07:32:48.858Z,16832.00
2017-11-07T07:33:48.795Z,17056.00
2017-11-07T07:34:48.736Z,17824.00
2017-11-07T07:35:48.685Z,20800.00
2017-11-07T07:36:48.630Z,23648.00
2017-11-07T07:37:48.547Z,22688.00
2017-11-07T07:38:48.479Z,24480.00
2017-11-07T07:39:48.439Z,26464.00
2017-11-07T07:40:48.355Z,29952.00
2017-11-07T07:41:48.303Z,29792.00
2017-11-07T07:42:48.234Z,28416.00
2017-11-07T07:43:48.183Z,27328.00
2017-11-07T07:44:48.125Z,27584.00
2017-11-07T07:45:48.069Z,30848.00
2017-11-07T07:46:47.996Z,37024.00
2017-11-07T07:47:47.941Z,39552.00
2017-11-07T07:48:47.894Z,39936.00
2017-11-07T07:49:47.818Z,39712.00
2017-11-07T07:50:47.767Z,37888.00
2017-11-07T07:51:47.696Z,38016.00
2017-11-07T07:52:47.638Z,38144.00
2017-11-07T07:53:47.582Z,39968.00
2017-11-07T07:54:47.525Z,41440.00
2017-11-07T07:55:47.468Z,40480.00
2017-11-07T07:56:47.414Z,40128.00
2017-11-07T07:57:47.382Z,41184.00
2017-11-07T07:58:47.302Z,43680.00
2017-11-07T07:59:47.247Z,43712.00
2017-11-07T08:00:47.194Z,42208.00
2017-11-07T08:01:47.141Z,42880.00
2017-11-07T08:02:47.084Z,42656.00
2017-11-07T08:03:47.034Z,42944.00
2017-11-07T08:04:46.976Z,43488.00
2017-11-07T08:05:46.925Z,41984.00
2017-11-07T08:06:46.868Z,39872.00
2017-11-07T08:07:46.815Z,39712.00
2017-11-07T08:08:46.762Z,39776.00
2017-11-07T08:09:46.710Z,42784.00
2017-11-07T08:10:46.674Z,45344.00
2017-11-07T08:11:46.613Z,46016.00
2017-11-07T08:12:46.561Z,46848.00
2017-11-07T08:13:46.510Z,46528.00
2017-11-07T08:14:46.457Z,46304.00
2017-11-07T08:15:46.428Z,46656.00
2017-11-07T08:16:46.370Z,47392.00
2017-11-07T08:17:46.315Z,46816.00
2017-11-07T08:18:46.261Z,47360.00
2017-11-07T08:19:46.207Z,48160.00
2017-11-07T08:20:46.158Z,48256.00
2017-11-07T08:21:46.104Z,49888.00
2017-11-07T08:22:46.051Z,48768.00
2017-11-07T08:23:45.998Z,48480.00
2017-11-07T08:24:45.948Z,47392.00
2017-11-07T08:25:45.906Z,46528.00
2017-11-07T08:26:45.853Z,45632.00
2017-11-07T08:27:45.799Z,46848.00
2017-11-07T08:28:45.762Z,49056.00
2017-11-07T08:29:45.722Z,50304.00
2017-11-07T08:30:45.654Z,50848.00
2017-11-07T08:31:45.611Z,49568.00
2017-11-07T08:32:45.558Z,47072.00
2017-11-07T08:33:45.507Z,46176.00
2017-11-07T08:34:45.456Z,48640.00
2017-11-07T08:35:45.411Z,49984.00
2017-11-07T08:36:45.353Z,49984.00
2017-11-07T08:37:45.312Z,50176.00
2017-11-07T08:38:45.262Z,49216.00
2017-11-07T08:39:45.210Z,49344.00
2017-11-07T08:40:45.182Z,50208.00
2017-11-07T08:41:45.128Z,49856.00
2017-11-07T08:42:45.074Z,50720.00
2017-11-07T08:43:45.029Z,51136.00
2017-11-07T08:44:44.973Z,51168.00
2017-11-07T08:45:44.920Z,52704.00
2017-11-07T08:46:44.870Z,51264.00
2017-11-07T08:47:44.828Z,49664.00
2017-11-07T08:48:44.789Z,49664.00
2017-11-07T08:49:44.736Z,51072.00
2017-11-07T08:50:44.698Z,51904.00
2017-11-07T08:51:44.646Z,51936.00
2017-11-07T08:52:44.589Z,50624.00
2017-11-07T08:53:44.541Z,48832.00
2017-11-07T08:54:44.497Z,48000.00
2017-11-07T08:55:44.443Z,45280.00
2017-11-07T08:56:44.398Z,46784.00
2017-11-07T08:57:44.349Z,49696.00
2017-11-07T08:58:44.307Z,51488.00
2017-11-07T08:59:44.269Z,51328.00
2017-11-07T09:00:44.215Z,41664.00
2017-11-07T09:01:44.162Z,39520.00
2017-11-07T09:02:44.111Z,50336.00
2017-11-07T09:03:44.066Z,51360.00
2017-11-07T09:04:44.013Z,51264.00
2017-11-07T09:05:43.972Z,50880.00
2017-11-07T09:06:43.917Z,49024.00
2017-11-07T09:07:43.895Z,48832.00
2017-11-07T09:08:43.833Z,49056.00
2017-11-07T09:09:43.786Z,48736.00
2017-11-07T09:10:43.734Z,49984.00
2017-11-07T09:11:43.690Z,48192.00
2017-11-07T09:12:43.642Z,46976.00
2017-11-07T09:13:43.594Z,46336.00
2017-11-07T09:14:43.547Z,45152.00
2017-11-07T09:15:43.507Z,39520.00
2017-11-07T09:16:43.465Z,34336.00
2017-11-07T09:17:43.411Z,38240.00
2017-11-07T09:18:43.359Z,29760.00
2017-11-07T09:19:43.307Z,18688.00
2017-11-07T09:20:43.257Z,19840.00
2017-11-07T09:21:43.208Z,17600.00
2017-11-07T09:22:43.166Z,14112.00
2017-11-07T09:23:43.119Z,11712.00
2017-11-07T09:24:43.078Z,10864.00
2017-11-07T09:25:43.037Z,11176.00
2017-11-07T09:26:42.984Z,10860.00
2017-11-07T09:27:42.928Z,24736.00
2017-11-07T09:28:42.875Z,22976.00
2017-11-07T09:29:42.825Z,25632.00
2017-11-07T09:30:42.773Z,33536.00
2017-11-07T09:31:42.744Z,19040.00
2017-11-07T09:32:42.678Z,10100.00
2017-11-07T09:33:42.631Z,9672.00
2017-11-07T09:34:42.580Z,9508.00
2017-11-07T09:35:42.528Z,9352.00
2017-11-07T09:36:42.475Z,9256.00
2017-11-07T09:37:42.444Z,9172.00
2017-11-07T09:38:42.389Z,9104.00
2017-11-07T09:39:42.334Z,9020.00
2017-11-07T09:40:42.279Z,8932.00
2017-11-07T09:41:42.221Z,8836.00
2017-11-07T09:42:42.177Z,8800.00
2017-11-07T09:43:42.119Z,8780.00
2017-11-07T09:44:42.067Z,8716.00
2017-11-07T09:45:42.012Z,8628.00
2017-11-07T09:46:41.961Z,8596.00
2017-11-07T09:47:41.909Z,8512.00
2017-11-07T09:48:41.853Z,8448.00
2017-11-07T09:49:41.801Z,8396.00
2017-11-07T09:50:41.746Z,8336.00
2017-11-07T09:51:41.700Z,8204.00
2017-11-07T09:52:41.639Z,8104.00
2017-11-07T09:53:41.600Z,7732.00
2017-11-07T09:54:41.542Z,7928.00
2017-11-07T09:55:41.487Z,7824.00
2017-11-07T09:56:41.435Z,7716.00
2017-11-07T09:57:41.382Z,7648.00
2017-11-07T09:58:41.325Z,7580.00
2017-11-07T09:59:41.272Z,7504.00
2017-11-07T10:00:41.219Z,7468.00
2017-11-07T10:01:41.166Z,7428.00
2017-11-07T10:02:41.108Z,7368.00
2017-11-07T10:03:41.057Z,7356.00
2017-11-07T10:04:41.004Z,7336.00
2017-11-07T10:05:40.949Z,7252.00
2017-11-07T10:06:40.893Z,7280.00
2017-11-07T10:07:40.840Z,7224.00
2017-11-07T10:08:40.788Z,7228.00
2017-11-07T10:09:40.730Z,7288.00
2017-11-07T10:10:40.677Z,7392.00
2017-11-07T10:11:40.622Z,7148.00
2017-11-07T10:12:40.567Z,7100.00
2017-11-07T10:13:40.515Z,7036.00
2017-11-07T10:14:40.458Z,7016.00
2017-11-07T10:15:40.395Z,6940.00
2017-11-07T10:16:40.347Z,6892.00
2017-11-07T10:17:40.292Z,6900.00
2017-11-07T10:18:40.235Z,6764.00
2017-11-07T10:19:40.181Z,6964.00
2017-11-07T10:20:40.121Z,6472.00
2017-11-07T10:21:40.071Z,6232.00
2017-11-07T10:22:40.014Z,6184.00
2017-11-07T10:23:39.958Z,5760.00
2017-11-07T10:24:39.903Z,5504.00
2017-11-07T10:25:39.846Z,5348.00
2017-11-07T10:26:39.791Z,5316.00
2017-11-07T10:27:39.737Z,5044.00
2017-11-07T10:28:39.679Z,5440.00
2017-11-07T10:29:39.622Z,5256.00
2017-11-07T10:30:39.560Z,5172.00
2017-11-07T10:31:39.502Z,4984.00
2017-11-07T10:32:39.446Z,4248.00
2017-11-07T10:33:39.391Z,4884.00
2017-11-07T10:34:39.341Z,4884.00
2017-11-07T10:35:39.285Z,4800.00
2017-11-07T10:36:39.223Z,4888.00
2017-11-07T10:37:39.169Z,4960.00
2017-11-07T10:38:39.113Z,4980.00
2017-11-07T10:39:39.054Z,5396.00
2017-11-07T10:40:39.000Z,4612.00
2017-11-07T10:41:38.950Z,4716.00
2017-11-07T10:42:38.885Z,4724.00
2017-11-07T10:43:38.831Z,5000.00
2017-11-07T10:44:38.776Z,5476.00
2017-11-07T10:45:38.723Z,4492.00
2017-11-07T10:46:38.666Z,4972.00
2017-11-07T10:47:38.616Z,4548.00
2017-11-07T10:48:38.556Z,4076.00
2017-11-07T10:49:38.501Z,4652.00
2017-11-07T10:50:38.446Z,4644.00
2017-11-07T10:51:38.392Z,5224.00
2017-11-07T10:52:38.314Z,4864.00
2017-11-07T10:53:38.259Z,4684.00
2017-11-07T10:54:38.198Z,5016.00
2017-11-07T10:55:38.143Z,5580.00
2017-11-07T10:56:38.086Z,5080.00
2017-11-07T10:57:38.040Z,4424.00
2017-11-07T10:58:37.964Z,4368.00
2017-11-07T10:59:37.909Z,4484.00
2017-11-07T11:00:37.849Z,4568.00
2017-11-07T11:01:37.793Z,4732.00
2017-11-07T11:02:37.738Z,4824.00
2017-11-07T11:03:37.680Z,4908.00
2017-11-07T11:04:37.625Z,5084.00
2017-11-07T11:05:37.566Z,5624.00
2017-11-07T11:06:37.509Z,5220.00
2017-11-07T11:07:37.452Z,7108.00
2017-11-07T11:08:37.398Z,6356.00
2017-11-07T11:09:37.343Z,5544.00
2017-11-07T11:10:37.287Z,6044.00
2017-11-07T11:11:37.219Z,6076.00
2017-11-07T11:12:37.183Z,5988.00
2017-11-07T11:13:37.108Z,4904.00
2017-11-07T11:14:37.050Z,6332.00
2017-11-07T11:15:36.985Z,6164.00
2017-11-07T11:16:36.929Z,6848.00
2017-11-07T11:17:36.869Z,7216.00
2017-11-07T11:18:36.805Z,6336.00
2017-11-07T11:19:36.747Z,6020.00
2017-11-07T11:20:36.690Z,5748.00
2017-11-07T11:21:36.634Z,5312.00
2017-11-07T11:22:36.579Z,5660.00
2017-11-07T11:23:36.523Z,5020.00
2017-11-07T11:24:36.469Z,4816.00
2017-11-07T11:25:36.407Z,4980.00
2017-11-07T11:26:36.361Z,4592.00
2017-11-07T11:27:36.294Z,4624.00
2017-11-07T11:28:36.239Z,4476.00
2017-11-07T11:29:36.170Z,4076.00
2017-11-07T11:30:36.129Z,4164.00
2017-11-07T11:31:36.076Z,4288.00
2017-11-07T11:32:36.028Z,4412.00
2017-11-07T11:33:35.947Z,5384.00
2017-11-07T11:34:35.884Z,5240.00
2017-11-07T11:35:35.823Z,3892.00
2017-11-07T11:36:35.764Z,3880.00
2017-11-07T11:37:35.705Z,3916.00
2017-11-07T11:38:35.653Z,3892.00
2017-11-07T11:39:35.584Z,3824.00
2017-11-07T11:40:35.528Z,3920.00
2017-11-07T11:41:35.470Z,3988.00
2017-11-07T11:42:35.413Z,4152.00
2017-11-07T11:43:35.362Z,4300.00
2017-11-07T11:44:35.299Z,3892.00
2017-11-07T11:45:35.248Z,4076.00
2017-11-07T11:46:35.191Z,3920.00
2017-11-07T11:47:35.135Z,3880.00
2017-11-07T11:48:35.107Z,3752.00
2017-11-07T11:49:35.005Z,3804.00
2017-11-07T11:50:34.944Z,3764.00
2017-11-07T11:51:34.886Z,3796.00
2017-11-07T11:52:34.829Z,3780.00
2017-11-07T11:53:34.780Z,3788.00
2017-11-07T11:54:34.709Z,3776.00
2017-11-07T11:55:34.647Z,3780.00
2017-11-07T11:56:34.591Z,3540.00
2017-11-07T11:57:34.542Z,3716.00
2017-11-07T11:58:34.473Z,3720.00
2017-11-07T11:59:34.417Z,3716.00
2017-11-07T12:00:34.357Z,3688.00
2017-11-07T12:01:34.305Z,3684.00
2017-11-07T12:02:34.250Z,3580.00
2017-11-07T12:03:34.197Z,3676.00
2017-11-07T12:04:34.141Z,3684.00
2017-11-07T12:05:34.063Z,3696.00
2017-11-07T12:06:34.018Z,3676.00
2017-11-07T12:07:33.945Z,3676.00
2017-11-07T12:08:33.886Z,3692.00
2017-11-07T12:09:33.820Z,3692.00
2017-11-07T12:10:33.782Z,3676.00
2017-11-07T12:11:33.718Z,3660.00
2017-11-07T12:12:33.653Z,3680.00
2017-11-07T12:13:33.589Z,3648.00
2017-11-07T12:14:33.535Z,3664.00
2017-11-07T12:15:33.480Z,3708.00
2017-11-07T12:16:33.420Z,3740.00
2017-11-07T12:17:33.365Z,3776.00
2017-11-07T12:18:33.312Z,3808.00
2017-11-07T12:19:33.237Z,3840.00
2017-11-07T12:20:33.177Z,3868.00
2017-11-07T12:21:33.118Z,3888.00
2017-11-07T12:22:33.054Z,3908.00
2017-11-07T12:23:32.991Z,3936.00
2017-11-07T12:24:32.934Z,3992.00
2017-11-07T12:25:32.887Z,4068.00
2017-11-07T12:26:32.823Z,4124.00
2017-11-07T12:27:32.760Z,4148.00
2017-11-07T12:28:32.714Z,4140.00
2017-11-07T12:29:32.646Z,4036.00
2017-11-07T12:30:32.590Z,3776.00
2017-11-07T12:31:32.538Z,3740.00
2017-11-07T12:32:32.481Z,3732.00
2017-11-07T12:33:32.428Z,3748.00
2017-11-07T12:34:32.351Z,3776.00
2017-11-07T12:35:32.292Z,3824.00
2017-11-07T12:36:32.229Z,3888.00
2017-11-07T12:37:32.178Z,3968.00
2017-11-07T12:38:32.105Z,4044.00
2017-11-07T12:39:32.049Z,4120.00
2017-11-07T12:40:31.995Z,4212.00
2017-11-07T12:41:31.933Z,4312.00
2017-11-07T12:42:31.874Z,4448.00
2017-11-07T12:43:31.813Z,4636.00
2017-11-07T12:44:31.762Z,4852.00
2017-11-07T12:45:31.706Z,5020.00
2017-11-07T12:46:31.678Z,5160.00
2017-11-07T12:47:31.576Z,5260.00
2017-11-07T12:48:31.519Z,5304.00
2017-11-07T12:49:31.460Z,5320.00
2017-11-07T12:50:31.403Z,5292.00
2017-11-07T12:51:31.340Z,5252.00
2017-11-07T12:52:31.275Z,5184.00
2017-11-07T12:53:31.223Z,5124.00
2017-11-07T12:54:31.163Z,5068.00
2017-11-07T12:55:31.103Z,5032.00
2017-11-07T12:56:31.046Z,5004.00
2017-11-07T12:57:30.989Z,4968.00
2017-11-07T12:58:30.932Z,4932.00